createdAt,value
2018-03-22T00:00:58.164Z,101697.79
2018-03-22T00:03:27.238Z,101687.64
2018-03-22T00:05:55.836Z,101692.17
2018-03-22T00:08:24.287Z,101690.39
2018-03-22T00:10:52.900Z,101685.47
2018-03-22T00:13:21.575Z,101687.36
2018-03-22T00:15:50.432Z,101688.59
2018-03-22T00:18:19.446Z,101684.62
2018-03-22T00:20:48.625Z,101678.78
2018-03-22T00:23:17.789Z,101668.78
2018-03-22T00:25:46.340Z,101666.02
2018-03-22T00:28:15.583Z,101661.70
2018-03-22T00:30:44.101Z,101662.47
2018-03-22T00:33:12.553Z,101653.30
2018-03-22T00:35:41.148Z,101651.47
2018-03-22T00:38:09.811Z,101644.34
2018-03-22T00:40:38.879Z,101642.47
2018-03-22T00:43:07.805Z,101641.12
2018-03-22T00:45:36.324Z,101633.34
2018-03-22T00:48:04.881Z,101629.45
2018-03-22T00:50:33.425Z,101629.23
2018-03-22T00:53:02.140Z,101619.45
2018-03-22T00:55:30.736Z,101624.03
2018-03-22T00:57:59.338Z,101612.41
2018-03-22T01:00:28.009Z,101615.14
2018-03-22T01:02:56.710Z,101618.74
2018-03-22T01:05:25.268Z,101614.78
2018-03-22T01:07:54.282Z,101608.03
2018-03-22T01:10:22.797Z,101603.66
2018-03-22T01:12:51.713Z,101588.17
2018-03-22T01:15:23.262Z,101592.72
2018-03-22T01:17:51.868Z,101578.63
2018-03-22T01:20:20.504Z,101581.19
2018-03-22T01:22:48.965Z,101564.52
2018-03-22T01:25:18.153Z,101559.94
2018-03-22T01:27:46.710Z,101550.08
2018-03-22T01:30:24.046Z,101551.23
2018-03-22T01:32:52.457Z,101540.48
2018-03-22T01:35:21.269Z,101538.98
2018-03-22T01:37:49.922Z,101532.15
2018-03-22T01:40:18.450Z,101530.44
2018-03-22T01:42:47.100Z,101526.17
2018-03-22T01:45:15.762Z,101520.52
2018-03-22T01:47:44.281Z,101514.19
2018-03-22T01:50:12.732Z,101510.59
2018-03-22T01:52:50.369Z,101508.30
2018-03-22T01:55:19.478Z,101500.86
2018-03-22T01:57:48.025Z,101492.80
2018-03-22T02:00:16.518Z,101488.42
2018-03-22T02:02:44.969Z,101483.22
2018-03-22T02:05:13.768Z,101483.73
2018-03-22T02:07:42.616Z,101476.53
2018-03-22T02:10:11.445Z,101465.23
2018-03-22T02:12:40.022Z,101460.39
2018-03-22T02:15:08.906Z,101454.16
2018-03-22T02:17:37.468Z,101445.03
2018-03-22T02:20:06.146Z,101442.64
2018-03-22T02:22:35.044Z,101440.85
2018-03-22T02:25:03.808Z,101438.44
2018-03-22T02:27:32.282Z,101431.47
2018-03-22T02:30:00.760Z,101429.20
2018-03-22T02:32:29.497Z,101431.27
2018-03-22T02:34:58.200Z,101427.20
2018-03-22T02:37:26.862Z,101422.20
2018-03-22T02:39:55.380Z,101411.53
2018-03-22T02:42:24.070Z,101414.70
2018-03-22T02:44:52.728Z,101406.48
2018-03-22T02:47:21.230Z,101400.02
2018-03-22T02:49:49.649Z,101395.97
2018-03-22T02:52:18.385Z,101389.09
2018-03-22T02:54:47.045Z,101388.89
2018-03-22T02:57:15.526Z,101382.75
2018-03-22T02:59:43.994Z,101371.77
2018-03-22T03:02:13.281Z,101375.77
2018-03-22T03:04:41.716Z,101373.94
2018-03-22T03:07:10.666Z,101365.83
2018-03-22T03:09:39.260Z,101350.64
2018-03-22T03:12:07.936Z,101350.00
2018-03-22T03:14:36.524Z,101347.72
2018-03-22T03:17:05.445Z,101331.32
2018-03-22T03:19:34.226Z,101331.38
2018-03-22T03:22:03.091Z,101321.28
2018-03-22T03:24:31.775Z,101315.41
2018-03-22T03:27:00.595Z,101313.69
2018-03-22T03:29:29.465Z,101316.34
2018-03-22T03:31:57.968Z,101308.33
2018-03-22T03:34:26.598Z,101296.20
2018-03-22T03:36:55.123Z,101298.33
2018-03-22T03:39:23.548Z,101281.37
2018-03-22T03:41:52.176Z,101279.49
2018-03-22T03:44:21.426Z,101271.84
2018-03-22T03:46:50.088Z,101277.41
2018-03-22T03:49:18.774Z,101272.78
2018-03-22T03:51:47.226Z,101272.06
2018-03-22T03:54:15.704Z,101261.38
2018-03-22T03:56:44.155Z,101255.39
2018-03-22T03:59:12.729Z,101251.30
2018-03-22T04:01:41.589Z,101244.46
2018-03-22T04:04:10.396Z,101238.84
2018-03-22T04:06:38.865Z,101236.19
2018-03-22T04:09:07.497Z,101229.58
2018-03-22T04:11:36.048Z,101230.56
2018-03-22T04:14:04.771Z,101226.87
2018-03-22T04:16:33.795Z,101218.64
2018-03-22T04:19:02.589Z,101215.02
2018-03-22T04:21:31.184Z,101207.05
2018-03-22T04:23:59.812Z,101198.97
2018-03-22T04:26:28.374Z,101198.34
2018-03-22T04:28:56.986Z,101198.09
2018-03-22T04:31:25.602Z,101189.14
2018-03-22T04:33:54.213Z,101192.63
2018-03-22T04:36:22.849Z,101183.66
2018-03-22T04:38:51.728Z,101174.64
2018-03-22T04:41:20.113Z,101177.54
2018-03-22T04:43:48.798Z,101176.96
2018-03-22T04:46:17.317Z,101174.47
2018-03-22T04:48:46.000Z,101174.42
2018-03-22T04:51:14.894Z,101166.36
2018-03-22T04:53:43.489Z,101162.38
2018-03-22T04:56:12.179Z,101152.91
2018-03-22T04:58:40.823Z,101147.41
2018-03-22T05:04:04.444Z,101143.41
2018-03-22T05:06:32.850Z,101140.73
2018-03-22T05:09:01.310Z,101132.64
2018-03-22T05:11:29.644Z,101130.41
2018-03-22T05:13:57.909Z,101135.48
2018-03-22T05:16:26.398Z,101123.45
2018-03-22T05:19:01.563Z,101130.32
2018-03-22T05:21:30.056Z,101127.95
2018-03-22T05:23:58.480Z,101121.98
2018-03-22T05:26:26.803Z,101118.83
2018-03-22T05:28:55.133Z,101117.72
2018-03-22T05:31:23.455Z,101122.48
2018-03-22T05:33:51.732Z,101121.95
2018-03-22T05:36:20.020Z,101131.15
2018-03-22T05:38:48.388Z,101129.44
2018-03-22T05:41:16.884Z,101131.31
2018-03-22T05:43:45.149Z,101129.57
2018-03-22T05:46:13.440Z,101123.05
2018-03-22T05:48:41.898Z,101125.48
2018-03-22T05:51:10.286Z,101120.70
2018-03-22T05:53:38.560Z,101104.96
2018-03-22T05:56:06.923Z,101108.58
2018-03-22T05:58:35.336Z,101099.95
2018-03-22T06:01:03.708Z,101091.20
2018-03-22T06:03:31.961Z,101086.73
2018-03-22T06:06:00.272Z,101085.15
2018-03-22T06:08:28.585Z,101072.15
2018-03-22T06:10:57.042Z,101068.94
2018-03-22T06:13:25.452Z,101060.30
2018-03-22T06:15:53.950Z,101056.84
2018-03-22T06:18:22.339Z,101051.36
2018-03-22T06:20:50.710Z,101041.16
2018-03-22T06:23:19.072Z,101040.01
2018-03-22T06:25:47.385Z,101036.48
2018-03-22T06:28:15.917Z,101032.28
2018-03-22T06:30:44.212Z,101026.52
2018-03-22T06:33:12.460Z,101017.80
2018-03-22T06:35:40.973Z,101013.87
2018-03-22T06:38:09.442Z,101008.15
2018-03-22T06:40:37.749Z,100999.84
2018-03-22T06:43:06.109Z,100999.67
2018-03-22T06:45:34.465Z,100990.88
2018-03-22T06:48:02.946Z,100992.94
2018-03-22T06:50:31.233Z,100987.68
2018-03-22T06:52:59.673Z,100988.62
2018-03-22T06:55:28.132Z,100977.67
2018-03-22T06:57:56.675Z,100968.48
2018-03-22T07:00:25.257Z,100970.62
2018-03-22T07:02:53.559Z,100959.73
2018-03-22T07:05:23.856Z,100962.09
2018-03-22T07:07:52.147Z,100953.22
2018-03-22T07:10:20.555Z,100950.80
2018-03-22T07:12:48.896Z,100949.81
2018-03-22T07:15:17.191Z,100949.75
2018-03-22T07:17:45.492Z,100944.69
2018-03-22T07:20:13.900Z,100940.22
2018-03-22T07:22:42.187Z,100940.17
2018-03-22T07:25:10.488Z,100939.65
2018-03-22T07:27:38.871Z,100927.28
2018-03-22T07:30:07.175Z,100921.57
2018-03-22T07:32:35.452Z,100920.72
2018-03-22T07:35:03.776Z,100915.59
2018-03-22T07:37:32.153Z,100909.58
2018-03-22T07:40:00.491Z,100905.73
2018-03-22T07:42:28.879Z,100894.35
2018-03-22T07:44:57.341Z,100893.77
2018-03-22T07:47:25.716Z,100891.17
2018-03-22T07:49:54.001Z,100881.30
2018-03-22T07:52:22.351Z,100876.25
2018-03-22T07:54:50.668Z,100866.61
2018-03-22T07:57:19.062Z,100868.09
2018-03-22T07:59:47.383Z,100867.86
2018-03-22T08:02:15.825Z,100881.46
2018-03-22T08:04:44.125Z,100865.52
2018-03-22T08:07:12.496Z,100863.38
2018-03-22T08:09:41.173Z,100861.86
2018-03-22T08:12:09.616Z,100843.05
2018-03-22T08:14:38.136Z,100857.23
2018-03-22T08:17:06.511Z,100840.99
2018-03-22T08:19:34.840Z,100835.28
2018-03-22T08:22:03.131Z,100846.86
2018-03-22T08:24:31.491Z,100836.78
2018-03-22T08:26:59.889Z,100840.09
2018-03-22T08:29:28.372Z,100835.27
2018-03-22T08:31:56.671Z,100834.56
2018-03-22T08:34:24.948Z,100831.03
2018-03-22T08:36:53.246Z,100830.58
2018-03-22T08:39:21.524Z,100837.67
2018-03-22T08:41:49.857Z,100829.84
2018-03-22T08:44:18.510Z,100826.75
2018-03-22T08:46:46.808Z,100822.34
2018-03-22T08:49:15.065Z,100820.11
2018-03-22T08:51:43.385Z,100822.76
2018-03-22T08:54:11.660Z,100821.69
2018-03-22T08:56:39.968Z,100825.92
2018-03-22T08:59:08.338Z,100817.15
2018-03-22T09:01:36.637Z,100811.45
2018-03-22T09:04:04.915Z,100803.29
2018-03-22T09:06:33.370Z,100809.22
2018-03-22T09:09:01.681Z,100799.27
2018-03-22T09:11:30.109Z,100790.44
2018-03-22T09:13:58.962Z,100796.11
2018-03-22T09:16:27.248Z,100785.29
2018-03-22T09:18:55.532Z,100787.09
2018-03-22T09:21:23.816Z,100786.16
2018-03-22T09:23:52.117Z,100777.06
2018-03-22T09:26:20.473Z,100778.52
2018-03-22T09:28:48.764Z,100765.70
2018-03-22T09:31:17.216Z,100767.77
2018-03-22T09:33:45.476Z,100762.29
2018-03-22T09:36:13.973Z,100763.64
2018-03-22T09:38:42.308Z,100761.02
2018-03-22T09:41:10.729Z,100756.84
2018-03-22T09:43:39.033Z,100756.65
2018-03-22T09:46:07.340Z,100758.23
2018-03-22T09:48:35.787Z,100745.99
2018-03-22T09:51:04.187Z,100743.13
2018-03-22T09:53:32.532Z,100742.64
2018-03-22T09:56:01.028Z,100737.95
2018-03-22T09:58:29.420Z,100737.91
2018-03-22T10:00:57.744Z,100740.61
2018-03-22T10:03:26.174Z,100730.02
2018-03-22T10:05:54.553Z,100732.31
2018-03-22T10:08:22.855Z,100728.37
2018-03-22T10:10:51.283Z,100730.25
2018-03-22T10:13:19.929Z,100726.30
2018-03-22T10:15:48.350Z,100735.95
2018-03-22T10:18:16.645Z,100727.77
2018-03-22T10:20:45.187Z,100725.16
2018-03-22T10:23:13.614Z,100727.52
2018-03-22T10:25:41.931Z,100723.47
2018-03-22T10:28:10.204Z,100721.86
2018-03-22T10:30:38.505Z,100717.23
2018-03-22T10:33:06.858Z,100725.27
2018-03-22T10:35:36.125Z,100715.98
2018-03-22T10:38:04.389Z,100715.51
2018-03-22T10:40:32.677Z,100702.33
2018-03-22T10:43:01.268Z,100694.47
2018-03-22T10:45:29.698Z,100701.76
2018-03-22T10:47:58.020Z,100696.94
2018-03-22T10:50:26.597Z,100698.86
2018-03-22T10:52:54.887Z,100700.59
2018-03-22T10:55:23.216Z,100697.70
2018-03-22T10:57:51.644Z,100694.42
2018-03-22T11:00:24.112Z,100691.63
2018-03-22T11:02:54.208Z,100697.54
2018-03-22T11:05:22.526Z,100694.83
2018-03-22T11:07:51.476Z,100691.05
2018-03-22T11:10:19.943Z,100690.16
2018-03-22T11:12:48.256Z,100689.28
2018-03-22T11:15:16.569Z,100678.03
2018-03-22T11:17:44.920Z,100672.44
2018-03-22T11:20:13.196Z,100677.70
2018-03-22T11:22:41.453Z,100667.61
2018-03-22T11:25:09.725Z,100661.87
2018-03-22T11:27:38.323Z,100661.48
2018-03-22T11:30:06.852Z,100659.42
2018-03-22T11:32:35.299Z,100658.00
2018-03-22T11:35:03.620Z,100656.00
2018-03-22T11:37:31.889Z,100647.91
2018-03-22T11:40:00.144Z,100649.34
2018-03-22T11:42:28.585Z,100644.91
2018-03-22T11:44:57.081Z,100647.79
2018-03-22T11:47:25.366Z,100641.38
2018-03-22T11:49:53.648Z,100633.27
2018-03-22T11:52:22.020Z,100633.27
2018-03-22T11:54:50.322Z,100632.39
2018-03-22T11:57:18.609Z,100629.55
2018-03-22T11:59:47.257Z,100637.42
2018-03-22T12:02:15.579Z,100627.85
2018-03-22T12:04:43.882Z,100628.66
2018-03-22T12:07:12.432Z,100627.83
2018-03-22T12:09:40.897Z,100619.11
2018-03-22T12:12:09.231Z,100614.75
2018-03-22T12:14:37.568Z,100609.16
2018-03-22T12:17:05.944Z,100609.78
2018-03-22T12:19:34.532Z,100613.97
2018-03-22T12:22:02.904Z,100609.39
2018-03-22T12:24:31.166Z,100610.13
2018-03-22T12:27:00.545Z,100605.88
2018-03-22T12:29:28.821Z,100605.83
2018-03-22T12:31:57.149Z,100601.40
2018-03-22T12:34:25.596Z,100593.72
2018-03-22T12:36:53.942Z,100595.97
2018-03-22T12:39:22.431Z,100596.95
2018-03-22T12:41:50.881Z,100586.84
2018-03-22T12:44:19.307Z,100580.11
2018-03-22T12:46:47.603Z,100581.75
2018-03-22T12:49:16.099Z,100585.36
2018-03-22T12:51:44.525Z,100579.03
2018-03-22T12:54:12.841Z,100576.41
2018-03-22T12:56:41.447Z,100575.27
2018-03-22T12:59:10.006Z,100577.51
2018-03-22T13:01:38.492Z,100572.33
2018-03-22T13:04:06.879Z,100572.33
2018-03-22T13:06:35.617Z,100573.27
2018-03-22T13:09:04.756Z,100567.50
2018-03-22T13:11:33.135Z,100567.86
2018-03-22T13:14:01.588Z,100567.91
2018-03-22T13:16:29.903Z,100569.75
2018-03-22T13:18:58.339Z,100566.92
2018-03-22T13:21:26.637Z,100569.28
2018-03-22T13:23:54.937Z,100566.80
2018-03-22T13:26:23.234Z,100563.09
2018-03-22T13:28:51.971Z,100563.91
2018-03-22T13:31:20.398Z,100557.30
2018-03-22T13:33:48.789Z,100567.67
2018-03-22T13:36:17.125Z,100564.56
2018-03-22T13:38:45.402Z,100558.14
2018-03-22T13:41:13.796Z,100560.97
2018-03-22T13:43:42.148Z,100555.47
2018-03-22T13:46:10.508Z,100563.85
2018-03-22T13:48:39.049Z,100568.11
2018-03-22T13:51:07.403Z,100569.09
2018-03-22T13:53:35.653Z,100563.91
2018-03-22T13:56:03.984Z,100564.60
2018-03-22T13:58:32.238Z,100560.66
2018-03-22T14:01:00.617Z,100556.75
2018-03-22T14:03:29.566Z,100553.91
2018-03-22T14:05:57.980Z,100557.52
2018-03-22T14:08:26.296Z,100561.47
2018-03-22T14:10:54.643Z,100560.70
2018-03-22T14:13:23.001Z,100558.53
2018-03-22T14:15:51.542Z,100555.69
2018-03-22T14:18:20.118Z,100559.71
2018-03-22T14:20:48.647Z,100554.46
2018-03-22T14:23:17.208Z,100559.01
2018-03-22T14:25:45.509Z,100552.03
2018-03-22T14:28:13.958Z,100550.86
2018-03-22T14:30:42.359Z,100548.69
2018-03-22T14:33:10.769Z,100543.59
2018-03-22T14:35:39.427Z,100540.00
2018-03-22T14:38:08.256Z,100538.22
2018-03-22T14:40:36.969Z,100531.86
2018-03-22T14:43:05.455Z,100534.73
2018-03-22T14:45:34.175Z,100527.03
2018-03-22T14:48:02.675Z,100532.73
2018-03-22T14:50:31.140Z,100530.20
2018-03-22T14:52:59.402Z,100530.41
2018-03-22T14:55:27.747Z,100526.88
2018-03-22T14:57:56.077Z,100521.59
2018-03-22T15:00:24.476Z,100522.76
2018-03-22T15:02:53.057Z,100524.23
2018-03-22T15:05:21.412Z,100517.78
2018-03-22T15:07:49.875Z,100522.44
2018-03-22T15:10:18.153Z,100521.79
2018-03-22T15:12:46.490Z,100523.27
2018-03-22T15:15:15.042Z,100523.40
2018-03-22T15:17:43.548Z,100519.08
2018-03-22T15:20:11.889Z,100515.67
2018-03-22T15:22:40.279Z,100521.08
2018-03-22T15:25:08.644Z,100519.80
2018-03-22T15:27:36.958Z,100516.48
2018-03-22T15:30:05.454Z,100521.13
2018-03-22T15:32:33.882Z,100517.47
2018-03-22T15:35:02.265Z,100522.06
2018-03-22T15:37:30.804Z,100511.46
2018-03-22T15:39:59.110Z,100515.56
2018-03-22T15:42:27.563Z,100513.53
2018-03-22T15:44:55.969Z,100512.31
2018-03-22T15:47:24.341Z,100513.66
2018-03-22T15:49:52.775Z,100517.83
2018-03-22T15:52:21.344Z,100511.20
2018-03-22T15:54:49.906Z,100511.13
2018-03-22T15:57:18.325Z,100516.25
2018-03-22T16:01:07.901Z,100523.45
2018-03-22T16:03:36.172Z,100521.94
2018-03-22T16:06:04.468Z,100523.87
2018-03-22T16:08:32.949Z,100526.76
2018-03-22T16:14:00.248Z,100523.62
2018-03-22T16:16:28.672Z,100515.52
2018-03-22T16:18:57.125Z,100529.13
2018-03-22T16:21:25.448Z,100526.92
2018-03-22T16:23:53.888Z,100522.63
2018-03-22T16:26:22.276Z,100528.27
2018-03-22T16:28:50.860Z,100522.70
2018-03-22T16:31:19.439Z,100522.23
2018-03-22T16:33:48.106Z,100524.56
2018-03-22T16:36:16.599Z,100523.67
2018-03-22T16:38:45.913Z,100528.77
2018-03-22T16:41:14.370Z,100515.47
2018-03-22T16:43:42.720Z,100521.65
2018-03-22T16:46:11.032Z,100517.89
2018-03-22T16:48:39.488Z,100517.07
2018-03-22T16:51:07.825Z,100515.19
2018-03-22T16:53:36.452Z,100515.91
2018-03-22T16:56:04.779Z,100517.95
2018-03-22T16:58:33.204Z,100521.25
2018-03-22T17:01:01.480Z,100517.07
2018-03-22T17:03:29.967Z,100520.20
2018-03-22T17:05:58.468Z,100524.51
2018-03-22T17:08:26.925Z,100522.08
2018-03-22T17:10:55.205Z,100524.09
2018-03-22T17:13:23.473Z,100521.97
2018-03-22T17:15:51.790Z,100529.39
2018-03-22T17:18:20.108Z,100525.86
2018-03-22T17:20:48.430Z,100525.21
2018-03-22T17:23:16.720Z,100528.34
2018-03-22T17:25:45.100Z,100532.41
2018-03-22T17:28:13.345Z,100524.91
2018-03-22T17:30:41.813Z,100530.39
2018-03-22T17:33:10.277Z,100522.73
2018-03-22T17:35:38.610Z,100520.08
2018-03-22T17:38:07.096Z,100520.14
2018-03-22T17:40:35.581Z,100518.87
2018-03-22T17:43:03.882Z,100519.36
2018-03-22T17:45:32.520Z,100520.61
2018-03-22T17:48:00.876Z,100527.02
2018-03-22T17:50:29.249Z,100528.58
2018-03-22T17:52:57.767Z,100522.03
2018-03-22T17:55:26.125Z,100523.97
2018-03-22T17:57:54.600Z,100532.19
2018-03-22T18:00:23.308Z,100527.05
2018-03-22T18:02:51.952Z,100534.08
2018-03-22T18:05:20.535Z,100533.35
2018-03-22T18:07:49.808Z,100528.34
2018-03-22T18:10:18.159Z,100536.53
2018-03-22T18:12:46.641Z,100530.34
2018-03-22T18:15:14.942Z,100534.53
2018-03-22T18:17:43.259Z,100537.08
2018-03-22T18:20:11.875Z,100538.36
2018-03-22T18:22:40.353Z,100534.94
2018-03-22T18:25:08.646Z,100538.25
2018-03-22T18:27:36.965Z,100537.36
2018-03-22T18:30:05.408Z,100532.70
2018-03-22T18:32:33.808Z,100533.01
2018-03-22T18:35:02.293Z,100524.77
2018-03-22T18:37:30.645Z,100523.90
2018-03-22T18:39:58.909Z,100522.45
2018-03-22T18:42:27.564Z,100522.44
2018-03-22T18:44:56.095Z,100517.98
2018-03-22T18:47:24.415Z,100515.98
2018-03-22T18:49:52.724Z,100523.47
2018-03-22T18:52:21.290Z,100523.84
2018-03-22T18:54:49.552Z,100527.03
2018-03-22T18:58:20.927Z,100526.44
2018-03-22T19:00:49.336Z,100516.64
2018-03-22T19:03:17.604Z,100525.08
2018-03-22T19:05:46.305Z,100524.83
2018-03-22T19:08:14.621Z,100518.05
2018-03-22T19:10:43.028Z,100518.30
2018-03-22T19:13:11.454Z,100514.05
2018-03-22T19:15:39.848Z,100511.10
2018-03-22T19:18:08.181Z,100507.39
2018-03-22T19:20:36.928Z,100509.75
2018-03-22T19:23:05.249Z,100503.97
2018-03-22T19:25:34.173Z,100506.38
2018-03-22T19:28:02.712Z,100510.61
2018-03-22T19:30:31.078Z,100504.85
2018-03-22T19:32:59.527Z,100517.27
2018-03-22T19:35:28.089Z,100509.77
2018-03-22T19:37:56.472Z,100509.15
2018-03-22T19:40:24.776Z,100516.62
2018-03-22T19:42:53.133Z,100517.12
2018-03-22T19:45:21.523Z,100518.97
2018-03-22T19:47:49.904Z,100524.04
2018-03-22T19:50:18.726Z,100520.85
2018-03-22T19:52:47.032Z,100520.95
2018-03-22T19:55:15.396Z,100524.02
2018-03-22T19:57:43.657Z,100523.97
2018-03-22T20:00:12.052Z,100522.23
2018-03-22T20:02:40.399Z,100527.29
2018-03-22T20:05:08.873Z,100530.41
2018-03-22T20:07:37.308Z,100528.25
2018-03-22T20:10:05.804Z,100529.38
2018-03-22T20:12:34.516Z,100527.86
2018-03-22T20:15:02.941Z,100517.23
2018-03-22T20:17:31.637Z,100522.88
2018-03-22T20:19:59.967Z,100522.41
2018-03-22T20:22:28.331Z,100521.27
2018-03-22T20:24:56.664Z,100528.05
2018-03-22T20:27:25.121Z,100526.24
2018-03-22T20:29:53.547Z,100531.64
2018-03-22T20:32:22.044Z,100522.94
2018-03-22T20:34:50.343Z,100523.06
2018-03-22T20:37:18.748Z,100521.26
2018-03-22T20:39:47.187Z,100521.83
2018-03-22T20:42:15.754Z,100523.76
2018-03-22T20:44:44.120Z,100521.63
2018-03-22T20:47:12.480Z,100519.61
2018-03-22T20:49:41.039Z,100526.85
2018-03-22T20:52:09.458Z,100521.34
2018-03-22T20:54:37.825Z,100521.42
2018-03-22T20:57:06.138Z,100521.67
2018-03-22T20:59:34.464Z,100518.13
2018-03-22T21:02:02.890Z,100518.30
2018-03-22T21:04:31.211Z,100511.46
2018-03-22T21:06:59.693Z,100511.94
2018-03-22T21:09:28.015Z,100515.53
2018-03-22T21:11:56.560Z,100510.30
2018-03-22T21:14:24.947Z,100515.70
2018-03-22T21:16:53.312Z,100511.85
2018-03-22T21:19:21.764Z,100517.86
2018-03-22T21:21:50.136Z,100513.05
2018-03-22T21:24:18.744Z,100522.16
2018-03-22T21:26:47.103Z,100523.83
2018-03-22T21:29:15.612Z,100519.47
2018-03-22T21:31:44.120Z,100524.15
2018-03-22T21:34:12.388Z,100519.72
2018-03-22T21:36:40.679Z,100525.09
2018-03-22T21:39:09.164Z,100520.01
2018-03-22T21:41:53.424Z,100507.11
2018-03-22T21:44:21.888Z,100514.22
2018-03-22T21:46:50.232Z,100505.63
2018-03-22T21:49:19.132Z,100514.67
2018-03-22T21:51:56.400Z,100516.50
2018-03-22T21:54:24.700Z,100512.35
2018-03-22T21:56:53.012Z,100512.67
2018-03-22T21:59:21.332Z,100512.27
2018-03-22T22:01:49.619Z,100514.34
2018-03-22T22:04:17.900Z,100511.00
2018-03-22T22:06:46.487Z,100515.64
2018-03-22T22:09:14.793Z,100509.01
2018-03-22T22:11:43.322Z,100513.93
2018-03-22T22:14:11.684Z,100516.16
2018-03-22T22:16:40.022Z,100513.55
2018-03-22T22:19:08.369Z,100513.03
2018-03-22T22:21:36.680Z,100517.23
2018-03-22T22:24:05.222Z,100514.63
2018-03-22T22:26:33.637Z,100520.06
2018-03-22T22:29:01.963Z,100521.58
2018-03-22T22:31:30.376Z,100519.00
2018-03-22T22:33:58.685Z,100517.56
2018-03-22T22:36:27.032Z,100513.81
2018-03-22T22:38:55.512Z,100508.02
2018-03-22T22:41:23.900Z,100509.49
2018-03-22T22:43:52.270Z,100509.95
2018-03-22T22:46:20.583Z,100499.08
2018-03-22T22:48:49.112Z,100504.86
2018-03-22T22:51:17.495Z,100505.94
2018-03-22T22:53:45.896Z,100505.49
2018-03-22T22:56:14.440Z,100500.66
2018-03-22T22:58:42.809Z,100499.14
2018-03-22T23:01:11.143Z,100500.09
2018-03-22T23:03:39.713Z,100491.34
2018-03-22T23:06:08.116Z,100500.38
2018-03-22T23:08:36.502Z,100492.20
2018-03-22T23:11:04.878Z,100498.98
2018-03-22T23:13:34.465Z,100497.16
2018-03-22T23:16:02.869Z,100494.80
2018-03-22T23:18:31.252Z,100494.91
2018-03-22T23:20:59.677Z,100493.55
2018-03-22T23:23:28.075Z,100492.16
2018-03-22T23:25:56.424Z,100492.03
2018-03-22T23:28:25.280Z,100486.31
2018-03-22T23:30:53.658Z,100483.27
2018-03-22T23:33:22.035Z,100481.16
2018-03-22T23:35:50.529Z,100481.36
2018-03-22T23:38:19.019Z,100483.39
2018-03-22T23:40:47.435Z,100476.42
2018-03-22T23:43:15.826Z,100473.98
2018-03-22T23:45:44.233Z,100480.68
2018-03-22T23:48:12.670Z,100482.45
2018-03-22T23:50:41.088Z,100481.86
2018-03-22T23:53:09.466Z,100477.36
2018-03-22T23:55:38.016Z,100481.63
2018-03-22T23:58:06.349Z,100469.77
